KBEH/BEH METAR and TAF weather

Enter ICAO airport designator
Station Type Date Time Source
KBEH METAR 2019/07/17 17:53 UTC NOAA

KBEH 171753Z AUTO 02003KT 10SM FEW033 FEW041 31/21 A2994 RMK AO2 SLP131 T03060211 10311 20244 56001


Station Type Date Time Source
KBEH Decoded METAR 2019/07/17 17:53 UTC NOAA

SOUTHWEST MICHIGAN REGIONAL, MI, United States (KBEH) 42-08N 86-25W 191M
Jul 17, 2019 - 01:53 PM EDT / 2019.07.17 1753 UTC
Wind: from the NNE (020 degrees) at 3 MPH (3 KT):0
Visibility: 10 mile(s):0
Sky conditions: mostly clear
Temperature: 87.1 F (30.6 C)
Dew Point: 70.0 F (21.1 C)
Relative Humidity: 56%
Pressure (altimeter): 29.94 in. Hg (1013 hPa)
Pressure tendency: 0.00 inches (0.1 hPa) lower than three hours ago
ob: KBEH 171753Z AUTO 02003KT 10SM FEW033 FEW041 31/21 A2994 RMK AO2 SLP131 T03060211 10311 20244 56001
cycle: 18

Station Type Date Time Source
KBEH TAF UTC NOAA

Error!

Example: see airport list